sensor_id;sensor_type;location;lat;lon;timestamp;temperature;humidity
14755;DHT22;7469;50.906;6.952;2023-04-03T00:01:10;5.10;99.90
14755;DHT22;7469;50.906;6.952;2023-04-03T00:03:38;5.10;99.90
14755;DHT22;7469;50.906;6.952;2023-04-03T00:06:09;5.10;99.90
14755;DHT22;7469;50.906;6.952;2023-04-03T00:08:39;5.10;99.90
14755;DHT22;7469;50.906;6.952;2023-04-03T00:11:08;5.10;99.90
14755;DHT22;7469;50.906;6.952;2023-04-03T00:13:36;5.00;99.90
14755;DHT22;7469;50.906;6.952;2023-04-03T00:16:05;5.00;99.90
14755;DHT22;7469;50.906;6.952;2023-04-03T00:18:35;5.00;99.90
14755;DHT22;7469;50.906;6.952;2023-04-03T00:21:04;5.00;99.90
14755;DHT22;7469;50.906;6.952;2023-04-03T00:23:33;5.00;99.90
14755;DHT22;7469;50.906;6.952;2023-04-03T00:26:01;5.00;99.90
14755;DHT22;7469;50.906;6.952;2023-04-03T00:28:29;5.00;99.90
14755;DHT22;7469;50.906;6.952;2023-04-03T00:30:58;5.00;99.90
14755;DHT22;7469;50.906;6.952;2023-04-03T00:33:26;5.00;99.90
14755;DHT22;7469;50.906;6.952;2023-04-03T00:35:55;5.00;99.90
14755;DHT22;7469;50.906;6.952;2023-04-03T00:38:23;5.00;99.90
14755;DHT22;7469;50.906;6.952;2023-04-03T00:40:51;5.00;99.90
14755;DHT22;7469;50.906;6.952;2023-04-03T00:43:21;5.00;99.90
14755;DHT22;7469;50.906;6.952;2023-04-03T00:45:51;4.90;99.90
14755;DHT22;7469;50.906;6.952;2023-04-03T00:48:21;4.90;99.90
14755;DHT22;7469;50.906;6.952;2023-04-03T00:50:50;4.90;99.90
14755;DHT22;7469;50.906;6.952;2023-04-03T00:53:24;4.90;99.90
14755;DHT22;7469;50.906;6.952;2023-04-03T00:55:54;4.90;99.90
14755;DHT22;7469;50.906;6.952;2023-04-03T00:58:31;4.80;99.90
14755;DHT22;7469;50.906;6.952;2023-04-03T01:01:05;4.80;99.90
14755;DHT22;7469;50.906;6.952;2023-04-03T01:03:34;4.70;99.90
14755;DHT22;7469;50.906;6.952;2023-04-03T01:06:03;4.70;99.90
14755;DHT22;7469;50.906;6.952;2023-04-03T01:08:32;4.70;99.90
14755;DHT22;7469;50.906;6.952;2023-04-03T01:11:00;4.60;99.90
14755;DHT22;7469;50.906;6.952;2023-04-03T01:13:30;4.60;99.90
14755;DHT22;7469;50.906;6.952;2023-04-03T01:16:00;4.50;99.90
14755;DHT22;7469;50.906;6.952;2023-04-03T01:18:30;4.50;99.90
14755;DHT22;7469;50.906;6.952;2023-04-03T01:24:08;4.40;99.90
14755;DHT22;7469;50.906;6.952;2023-04-03T01:26:39;4.40;99.90
14755;DHT22;7469;50.906;6.952;2023-04-03T01:29:07;4.30;99.90
14755;DHT22;7469;50.906;6.952;2023-04-03T01:31:51;4.20;99.90
14755;DHT22;7469;50.906;6.952;2023-04-03T01:34:19;4.20;99.90
14755;DHT22;7469;50.906;6.952;2023-04-03T01:36:47;4.20;99.90
14755;DHT22;7469;50.906;6.952;2023-04-03T01:39:15;4.20;99.90
14755;DHT22;7469;50.906;6.952;2023-04-03T01:41:43;4.10;99.90
14755;DHT22;7469;50.906;6.952;2023-04-03T01:44:12;4.10;99.90
14755;DHT22;7469;50.906;6.952;2023-04-03T01:46:40;4.10;99.90
14755;DHT22;7469;50.906;6.952;2023-04-03T01:49:10;4.10;99.90
14755;DHT22;7469;50.906;6.952;2023-04-03T01:51:38;4.00;99.90
14755;DHT22;7469;50.906;6.952;2023-04-03T01:54:06;4.00;99.90
14755;DHT22;7469;50.906;6.952;2023-04-03T01:56:34;4.00;99.90
14755;DHT22;7469;50.906;6.952;2023-04-03T01:59:02;4.00;99.90
14755;DHT22;7469;50.906;6.952;2023-04-03T02:01:30;3.90;99.90
14755;DHT22;7469;50.906;6.952;2023-04-03T02:03:58;3.90;99.90
14755;DHT22;7469;50.906;6.952;2023-04-03T02:06:27;3.90;99.90
14755;DHT22;7469;50.906;6.952;2023-04-03T02:08:55;3.90;99.90
14755;DHT22;7469;50.906;6.952;2023-04-03T02:11:23;3.90;99.90
14755;DHT22;7469;50.906;6.952;2023-04-03T02:13:51;3.90;99.90
14755;DHT22;7469;50.906;6.952;2023-04-03T02:16:19;3.90;99.90
14755;DHT22;7469;50.906;6.952;2023-04-03T02:18:47;3.80;99.90
14755;DHT22;7469;50.906;6.952;2023-04-03T02:21:15;3.80;99.90
14755;DHT22;7469;50.906;6.952;2023-04-03T02:23:44;3.80;99.90
14755;DHT22;7469;50.906;6.952;2023-04-03T02:26:15;3.80;99.90
14755;DHT22;7469;50.906;6.952;2023-04-03T02:28:43;3.70;99.90
14755;DHT22;7469;50.906;6.952;2023-04-03T02:31:13;3.70;99.90
14755;DHT22;7469;50.906;6.952;2023-04-03T02:33:41;3.70;99.90
14755;DHT22;7469;50.906;6.952;2023-04-03T02:36:09;3.70;99.90
14755;DHT22;7469;50.906;6.952;2023-04-03T02:38:37;3.60;99.90
14755;DHT22;7469;50.906;6.952;2023-04-03T02:41:09;3.60;99.90
14755;DHT22;7469;50.906;6.952;2023-04-03T02:43:40;3.60;99.90
14755;DHT22;7469;50.906;6.952;2023-04-03T02:46:08;3.50;99.90
14755;DHT22;7469;50.906;6.952;2023-04-03T02:48:36;3.50;99.90
14755;DHT22;7469;50.906;6.952;2023-04-03T02:51:04;3.50;99.90
14755;DHT22;7469;50.906;6.952;2023-04-03T02:53:32;3.50;99.90
14755;DHT22;7469;50.906;6.952;2023-04-03T02:56:00;3.40;99.90
14755;DHT22;7469;50.906;6.952;2023-04-03T02:58:29;3.40;99.90
14755;DHT22;7469;50.906;6.952;2023-04-03T03:00:57;3.40;99.90
14755;DHT22;7469;50.906;6.952;2023-04-03T03:03:25;3.30;99.90
14755;DHT22;7469;50.906;6.952;2023-04-03T03:06:01;3.30;99.90
14755;DHT22;7469;50.906;6.952;2023-04-03T03:08:29;3.30;99.90
14755;DHT22;7469;50.906;6.952;2023-04-03T03:10:57;3.20;99.90
14755;DHT22;7469;50.906;6.952;2023-04-03T03:13:27;3.20;99.90
14755;DHT22;7469;50.906;6.952;2023-04-03T03:15:56;3.20;99.90
14755;DHT22;7469;50.906;6.952;2023-04-03T03:18:24;3.20;99.90
14755;DHT22;7469;50.906;6.952;2023-04-03T03:20:53;3.10;99.90
14755;DHT22;7469;50.906;6.952;2023-04-03T03:23:22;3.10;99.90
14755;DHT22;7469;50.906;6.952;2023-04-03T03:25:54;3.10;99.90
14755;DHT22;7469;50.906;6.952;2023-04-03T03:28:22;3.00;99.90
14755;DHT22;7469;50.906;6.952;2023-04-03T03:30:51;3.00;99.90
14755;DHT22;7469;50.906;6.952;2023-04-03T03:33:20;3.00;99.90
14755;DHT22;7469;50.906;6.952;2023-04-03T03:35:48;3.00;99.90
14755;DHT22;7469;50.906;6.952;2023-04-03T03:38:16;2.90;99.90
14755;DHT22;7469;50.906;6.952;2023-04-03T03:40:44;2.90;99.90
14755;DHT22;7469;50.906;6.952;2023-04-03T03:43:12;2.90;99.90
14755;DHT22;7469;50.906;6.952;2023-04-03T03:45:40;2.90;99.90
14755;DHT22;7469;50.906;6.952;2023-04-03T03:48:08;2.90;99.90
14755;DHT22;7469;50.906;6.952;2023-04-03T03:50:38;2.80;99.90
14755;DHT22;7469;50.906;6.952;2023-04-03T03:53:06;2.80;99.90
14755;DHT22;7469;50.906;6.952;2023-04-03T03:55:34;2.80;99.90
14755;DHT22;7469;50.906;6.952;2023-04-03T03:58:04;2.80;99.90
14755;DHT22;7469;50.906;6.952;2023-04-03T04:00:32;2.80;99.90
14755;DHT22;7469;50.906;6.952;2023-04-03T04:03:00;2.80;99.90
14755;DHT22;7469;50.906;6.952;2023-04-03T04:05:28;2.80;99.90
14755;DHT22;7469;50.906;6.952;2023-04-03T04:07:57;2.80;99.90
14755;DHT22;7469;50.906;6.952;2023-04-03T04:10:25;2.70;99.90
14755;DHT22;7469;50.906;6.952;2023-04-03T04:12:53;2.70;99.90
14755;DHT22;7469;50.906;6.952;2023-04-03T04:15:24;2.70;99.90
14755;DHT22;7469;50.906;6.952;2023-04-03T04:17:52;2.70;99.90
14755;DHT22;7469;50.906;6.952;2023-04-03T04:20:20;2.70;99.90
14755;DHT22;7469;50.906;6.952;2023-04-03T04:22:49;2.70;99.90
14755;DHT22;7469;50.906;6.952;2023-04-03T04:25:18;2.60;99.90
14755;DHT22;7469;50.906;6.952;2023-04-03T04:27:46;2.60;99.90
14755;DHT22;7469;50.906;6.952;2023-04-03T04:30:14;2.60;99.90
14755;DHT22;7469;50.906;6.952;2023-04-03T04:32:42;2.60;99.90
14755;DHT22;7469;50.906;6.952;2023-04-03T04:35:10;2.60;99.90
14755;DHT22;7469;50.906;6.952;2023-04-03T04:37:42;2.60;99.90
14755;DHT22;7469;50.906;6.952;2023-04-03T04:40:10;2.50;99.90
14755;DHT22;7469;50.906;6.952;2023-04-03T04:42:40;2.50;99.90
14755;DHT22;7469;50.906;6.952;2023-04-03T04:45:08;2.50;99.90
14755;DHT22;7469;50.906;6.952;2023-04-03T04:47:36;2.50;99.90
14755;DHT22;7469;50.906;6.952;2023-04-03T04:50:05;2.40;99.90
14755;DHT22;7469;50.906;6.952;2023-04-03T04:52:33;2.50;99.90
14755;DHT22;7469;50.906;6.952;2023-04-03T04:55:01;2.40;99.90
14755;DHT22;7469;50.906;6.952;2023-04-03T04:57:29;2.40;99.90
14755;DHT22;7469;50.906;6.952;2023-04-03T04:59:59;2.40;99.90
14755;DHT22;7469;50.906;6.952;2023-04-03T05:02:27;2.40;99.90
14755;DHT22;7469;50.906;6.952;2023-04-03T05:04:55;2.40;99.90
14755;DHT22;7469;50.906;6.952;2023-04-03T05:07:23;2.40;99.90
14755;DHT22;7469;50.906;6.952;2023-04-03T05:09:51;2.30;99.90
14755;DHT22;7469;50.906;6.952;2023-04-03T05:12:19;2.30;99.90
14755;DHT22;7469;50.906;6.952;2023-04-03T05:14:47;2.30;99.90
14755;DHT22;7469;50.906;6.952;2023-04-03T05:17:17;2.30;99.90
14755;DHT22;7469;50.906;6.952;2023-04-03T05:19:44;2.30;99.90
14755;DHT22;7469;50.906;6.952;2023-04-03T05:22:12;2.30;99.90
14755;DHT22;7469;50.906;6.952;2023-04-03T05:24:42;2.30;99.90
14755;DHT22;7469;50.906;6.952;2023-04-03T05:27:10;2.30;99.90
14755;DHT22;7469;50.906;6.952;2023-04-03T05:29:37;2.30;99.90
14755;DHT22;7469;50.906;6.952;2023-04-03T05:32:05;2.30;99.90
14755;DHT22;7469;50.906;6.952;2023-04-03T05:34:35;2.30;99.90
14755;DHT22;7469;50.906;6.952;2023-04-03T05:37:03;2.40;99.90
14755;DHT22;7469;50.906;6.952;2023-04-03T05:39:32;2.40;99.90
14755;DHT22;7469;50.906;6.952;2023-04-03T05:42:00;2.50;99.90
14755;DHT22;7469;50.906;6.952;2023-04-03T05:44:28;2.50;99.90
14755;DHT22;7469;50.906;6.952;2023-04-03T05:46:56;2.50;99.90
14755;DHT22;7469;50.906;6.952;2023-04-03T05:49:24;2.50;99.90
14755;DHT22;7469;50.906;6.952;2023-04-03T05:51:54;2.60;99.90
14755;DHT22;7469;50.906;6.952;2023-04-03T05:54:24;2.60;99.90
14755;DHT22;7469;50.906;6.952;2023-04-03T05:56:52;2.60;99.90
14755;DHT22;7469;50.906;6.952;2023-04-03T05:59:21;2.70;99.90
14755;DHT22;7469;50.906;6.952;2023-04-03T06:01:49;2.70;99.90
14755;DHT22;7469;50.906;6.952;2023-04-03T06:04:17;2.70;99.90
14755;DHT22;7469;50.906;6.952;2023-04-03T06:06:47;2.80;99.90
14755;DHT22;7469;50.906;6.952;2023-04-03T06:09:18;2.80;99.90
14755;DHT22;7469;50.906;6.952;2023-04-03T06:11:46;2.90;99.90
14755;DHT22;7469;50.906;6.952;2023-04-03T06:14:14;2.90;99.90
14755;DHT22;7469;50.906;6.952;2023-04-03T06:16:43;2.90;99.90
14755;DHT22;7469;50.906;6.952;2023-04-03T06:19:11;3.00;99.90
14755;DHT22;7469;50.906;6.952;2023-04-03T06:21:39;3.00;99.90
14755;DHT22;7469;50.906;6.952;2023-04-03T06:24:11;3.10;99.90
14755;DHT22;7469;50.906;6.952;2023-04-03T06:26:41;3.10;99.90
14755;DHT22;7469;50.906;6.952;2023-04-03T06:29:09;3.10;99.90
14755;DHT22;7469;50.906;6.952;2023-04-03T06:31:37;3.20;99.90
14755;DHT22;7469;50.906;6.952;2023-04-03T06:34:06;3.20;99.90
14755;DHT22;7469;50.906;6.952;2023-04-03T06:36:35;3.30;99.90
14755;DHT22;7469;50.906;6.952;2023-04-03T06:39:03;3.30;99.90
14755;DHT22;7469;50.906;6.952;2023-04-03T06:41:31;3.30;99.90
14755;DHT22;7469;50.906;6.952;2023-04-03T06:44:03;3.40;99.90
14755;DHT22;7469;50.906;6.952;2023-04-03T06:46:31;3.40;99.90
14755;DHT22;7469;50.906;6.952;2023-04-03T06:48:59;3.40;99.90
14755;DHT22;7469;50.906;6.952;2023-04-03T06:51:28;3.50;99.90
14755;DHT22;7469;50.906;6.952;2023-04-03T06:53:57;3.50;99.90
14755;DHT22;7469;50.906;6.952;2023-04-03T06:56:26;3.60;99.90
14755;DHT22;7469;50.906;6.952;2023-04-03T06:58:55;3.60;99.90
14755;DHT22;7469;50.906;6.952;2023-04-03T07:01:27;3.70;99.90
14755;DHT22;7469;50.906;6.952;2023-04-03T07:03:56;3.70;99.90
14755;DHT22;7469;50.906;6.952;2023-04-03T07:06:24;3.80;99.90
14755;DHT22;7469;50.906;6.952;2023-04-03T07:08:53;3.80;99.90
14755;DHT22;7469;50.906;6.952;2023-04-03T07:11:22;3.90;99.90
14755;DHT22;7469;50.906;6.952;2023-04-03T07:13:50;3.90;99.90
14755;DHT22;7469;50.906;6.952;2023-04-03T07:16:18;4.00;99.90
14755;DHT22;7469;50.906;6.952;2023-04-03T07:18:48;4.10;99.90
14755;DHT22;7469;50.906;6.952;2023-04-03T07:21:16;4.10;99.90
14755;DHT22;7469;50.906;6.952;2023-04-03T07:23:44;4.20;99.90
14755;DHT22;7469;50.906;6.952;2023-04-03T07:26:12;4.20;99.90
14755;DHT22;7469;50.906;6.952;2023-04-03T07:28:40;4.30;99.90
14755;DHT22;7469;50.906;6.952;2023-04-03T07:31:11;4.40;99.90
14755;DHT22;7469;50.906;6.952;2023-04-03T07:33:40;4.40;99.90
14755;DHT22;7469;50.906;6.952;2023-04-03T07:36:17;4.40;99.90
14755;DHT22;7469;50.906;6.952;2023-04-03T07:38:45;4.50;99.90
14755;DHT22;7469;50.906;6.952;2023-04-03T07:41:15;4.50;99.90
14755;DHT22;7469;50.906;6.952;2023-04-03T07:43:44;4.60;99.90
14755;DHT22;7469;50.906;6.952;2023-04-03T07:46:13;4.60;99.90
14755;DHT22;7469;50.906;6.952;2023-04-03T07:48:41;4.70;99.90
14755;DHT22;7469;50.906;6.952;2023-04-03T07:51:09;4.70;99.90
14755;DHT22;7469;50.906;6.952;2023-04-03T07:53:39;4.80;99.90
14755;DHT22;7469;50.906;6.952;2023-04-03T07:56:07;4.80;99.90
14755;DHT22;7469;50.906;6.952;2023-04-03T07:58:36;4.90;99.90
14755;DHT22;7469;50.906;6.952;2023-04-03T08:01:04;5.00;99.90
14755;DHT22;7469;50.906;6.952;2023-04-03T08:03:32;5.00;99.90
14755;DHT22;7469;50.906;6.952;2023-04-03T08:06:03;5.10;99.90
14755;DHT22;7469;50.906;6.952;2023-04-03T08:08:38;5.10;99.90
14755;DHT22;7469;50.906;6.952;2023-04-03T08:11:07;5.20;99.90
14755;DHT22;7469;50.906;6.952;2023-04-03T08:13:35;5.30;99.90
14755;DHT22;7469;50.906;6.952;2023-04-03T08:16:10;5.40;99.90
14755;DHT22;7469;50.906;6.952;2023-04-03T08:18:39;5.50;99.90
14755;DHT22;7469;50.906;6.952;2023-04-03T08:21:08;5.60;99.90
14755;DHT22;7469;50.906;6.952;2023-04-03T08:23:38;5.60;99.90
14755;DHT22;7469;50.906;6.952;2023-04-03T08:26:09;5.70;99.90
14755;DHT22;7469;50.906;6.952;2023-04-03T08:28:37;5.80;99.90
14755;DHT22;7469;50.906;6.952;2023-04-03T08:31:07;5.80;99.90
14755;DHT22;7469;50.906;6.952;2023-04-03T08:33:38;5.80;99.90
14755;DHT22;7469;50.906;6.952;2023-04-03T08:36:08;5.90;99.90
14755;DHT22;7469;50.906;6.952;2023-04-03T08:38:44;6.00;99.90
14755;DHT22;7469;50.906;6.952;2023-04-03T08:41:16;6.10;99.90
14755;DHT22;7469;50.906;6.952;2023-04-03T08:44:05;6.20;99.90
14755;DHT22;7469;50.906;6.952;2023-04-03T08:46:43;6.30;99.90
14755;DHT22;7469;50.906;6.952;2023-04-03T08:49:18;6.30;99.90
14755;DHT22;7469;50.906;6.952;2023-04-03T08:51:49;6.40;99.90
14755;DHT22;7469;50.906;6.952;2023-04-03T08:54:27;6.50;99.90
14755;DHT22;7469;50.906;6.952;2023-04-03T08:57:00;6.60;99.90
14755;DHT22;7469;50.906;6.952;2023-04-03T08:59:33;6.60;99.90
14755;DHT22;7469;50.906;6.952;2023-04-03T09:02:04;6.60;99.90
14755;DHT22;7469;50.906;6.952;2023-04-03T09:04:42;6.70;99.90
14755;DHT22;7469;50.906;6.952;2023-04-03T09:07:17;6.70;99.90
14755;DHT22;7469;50.906;6.952;2023-04-03T09:09:50;6.80;99.90
14755;DHT22;7469;50.906;6.952;2023-04-03T09:12:24;6.90;99.90
14755;DHT22;7469;50.906;6.952;2023-04-03T09:14:59;7.00;99.90
14755;DHT22;7469;50.906;6.952;2023-04-03T09:17:38;7.20;99.90
14755;DHT22;7469;50.906;6.952;2023-04-03T09:20:17;7.30;99.90
14755;DHT22;7469;50.906;6.952;2023-04-03T09:22:47;7.50;99.90
14755;DHT22;7469;50.906;6.952;2023-04-03T09:25:22;7.60;99.90
14755;DHT22;7469;50.906;6.952;2023-04-03T09:27:51;7.80;99.90
14755;DHT22;7469;50.906;6.952;2023-04-03T09:30:21;7.90;99.90
14755;DHT22;7469;50.906;6.952;2023-04-03T09:32:51;8.20;99.90
14755;DHT22;7469;50.906;6.952;2023-04-03T09:35:23;8.60;99.90
14755;DHT22;7469;50.906;6.952;2023-04-03T09:38:16;9.30;99.90
14755;DHT22;7469;50.906;6.952;2023-04-03T09:40:48;10.20;99.90
14755;DHT22;7469;50.906;6.952;2023-04-03T09:43:34;11.30;99.90
14755;DHT22;7469;50.906;6.952;2023-04-03T09:46:33;13.00;99.20
14755;DHT22;7469;50.906;6.952;2023-04-03T09:49:03;15.40;93.60
14755;DHT22;7469;50.906;6.952;2023-04-03T09:51:35;17.50;86.40
14755;DHT22;7469;50.906;6.952;2023-04-03T09:54:26;19.80;71.60
14755;DHT22;7469;50.906;6.952;2023-04-03T09:56:56;22.20;56.10
14755;DHT22;7469;50.906;6.952;2023-04-03T09:59:27;24.10;45.30
14755;DHT22;7469;50.906;6.952;2023-04-03T10:02:00;25.80;35.00
14755;DHT22;7469;50.906;6.952;2023-04-03T10:04:38;26.80;29.50
14755;DHT22;7469;50.906;6.952;2023-04-03T10:07:29;27.80;27.00
14755;DHT22;7469;50.906;6.952;2023-04-03T10:09:58;28.80;23.60
14755;DHT22;7469;50.906;6.952;2023-04-03T10:12:28;29.20;20.20
14755;DHT22;7469;50.906;6.952;2023-04-03T10:14:57;29.60;18.50
14755;DHT22;7469;50.906;6.952;2023-04-03T10:17:35;30.40;16.80
14755;DHT22;7469;50.906;6.952;2023-04-03T10:20:18;31.00;15.70
14755;DHT22;7469;50.906;6.952;2023-04-03T10:23:00;31.50;14.20
14755;DHT22;7469;50.906;6.952;2023-04-03T10:25:34;30.90;11.90
14755;DHT22;7469;50.906;6.952;2023-04-03T10:28:10;30.60;12.10
14755;DHT22;7469;50.906;6.952;2023-04-03T10:30:48;30.80;11.40
14755;DHT22;7469;50.906;6.952;2023-04-03T10:33:35;30.70;10.40
14755;DHT22;7469;50.906;6.952;2023-04-03T10:36:13;30.30;9.80
14755;DHT22;7469;50.906;6.952;2023-04-03T10:38:51;29.60;9.70
14755;DHT22;7469;50.906;6.952;2023-04-03T10:41:30;29.90;9.70
14755;DHT22;7469;50.906;6.952;2023-04-03T10:44:12;30.20;9.10
14755;DHT22;7469;50.906;6.952;2023-04-03T10:46:43;29.80;8.80
14755;DHT22;7469;50.906;6.952;2023-04-03T10:49:21;29.80;8.50
14755;DHT22;7469;50.906;6.952;2023-04-03T10:51:57;29.90;8.60
14755;DHT22;7469;50.906;6.952;2023-04-03T10:54:34;30.20;7.40
14755;DHT22;7469;50.906;6.952;2023-04-03T10:57:06;29.90;7.30
14755;DHT22;7469;50.906;6.952;2023-04-03T10:59:45;29.40;7.20
14755;DHT22;7469;50.906;6.952;2023-04-03T11:02:19;29.30;7.60
14755;DHT22;7469;50.906;6.952;2023-04-03T11:04:54;29.80;7.60
14755;DHT22;7469;50.906;6.952;2023-04-03T11:07:25;29.80;6.70
14755;DHT22;7469;50.906;6.952;2023-04-03T11:09:56;29.70;6.90
14755;DHT22;7469;50.906;6.952;2023-04-03T11:12:33;30.20;6.90
14755;DHT22;7469;50.906;6.952;2023-04-03T11:15:11;30.70;6.60
14755;DHT22;7469;50.906;6.952;2023-04-03T11:17:43;31.10;6.30
14755;DHT22;7469;50.906;6.952;2023-04-03T11:20:17;31.50;6.10
14755;DHT22;7469;50.906;6.952;2023-04-03T11:22:50;31.60;5.40
14755;DHT22;7469;50.906;6.952;2023-04-03T11:25:20;31.60;4.90
14755;DHT22;7469;50.906;6.952;2023-04-03T11:27:55;31.20;5.00
14755;DHT22;7469;50.906;6.952;2023-04-03T11:30:28;30.60;4.80
14755;DHT22;7469;50.906;6.952;2023-04-03T11:33:31;29.90;5.10
14755;DHT22;7469;50.906;6.952;2023-04-03T11:36:04;29.10;5.40
14755;DHT22;7469;50.906;6.952;2023-04-03T11:38:53;27.90;5.40
14755;DHT22;7469;50.906;6.952;2023-04-03T11:41:26;26.40;6.20
14755;DHT22;7469;50.906;6.952;2023-04-03T11:43:58;24.30;7.20
14755;DHT22;7469;50.906;6.952;2023-04-03T11:46:50;22.10;8.40
14755;DHT22;7469;50.906;6.952;2023-04-03T11:49:56;19.90;10.20
14755;DHT22;7469;50.906;6.952;2023-04-03T11:52:58;18.30;11.80
14755;DHT22;7469;50.906;6.952;2023-04-03T11:55:53;16.90;13.10
14755;DHT22;7469;50.906;6.952;2023-04-03T11:58:24;15.90;14.40
14755;DHT22;7469;50.906;6.952;2023-04-03T12:01:01;15.20;14.90
14755;DHT22;7469;50.906;6.952;2023-04-03T12:07:11;13.90;16.70
14755;DHT22;7469;50.906;6.952;2023-04-03T12:10:14;13.50;17.30
14755;DHT22;7469;50.906;6.952;2023-04-03T12:12:59;13.10;17.80
14755;DHT22;7469;50.906;6.952;2023-04-03T12:15:48;12.60;17.80
14755;DHT22;7469;50.906;6.952;2023-04-03T12:18:44;12.20;18.20
14755;DHT22;7469;50.906;6.952;2023-04-03T12:21:13;12.00;18.60
14755;DHT22;7469;50.906;6.952;2023-04-03T12:24:03;11.70;18.60
14755;DHT22;7469;50.906;6.952;2023-04-03T12:26:36;11.50;18.30
14755;DHT22;7469;50.906;6.952;2023-04-03T12:29:18;11.30;18.70
14755;DHT22;7469;50.906;6.952;2023-04-03T12:31:58;11.30;19.30
14755;DHT22;7469;50.906;6.952;2023-04-03T12:34:44;11.20;18.70
14755;DHT22;7469;50.906;6.952;2023-04-03T12:37:23;11.10;18.90
14755;DHT22;7469;50.906;6.952;2023-04-03T12:39:59;11.10;19.10
14755;DHT22;7469;50.906;6.952;2023-04-03T12:45:22;11.20;19.50
14755;DHT22;7469;50.906;6.952;2023-04-03T12:47:53;11.30;19.60
14755;DHT22;7469;50.906;6.952;2023-04-03T12:50:25;11.30;19.80
14755;DHT22;7469;50.906;6.952;2023-04-03T12:53:00;11.40;20.00
14755;DHT22;7469;50.906;6.952;2023-04-03T12:55:29;11.40;20.00
14755;DHT22;7469;50.906;6.952;2023-04-03T12:58:10;11.50;20.10
14755;DHT22;7469;50.906;6.952;2023-04-03T13:00:42;11.50;19.80
14755;DHT22;7469;50.906;6.952;2023-04-03T13:03:22;11.40;19.90
14755;DHT22;7469;50.906;6.952;2023-04-03T13:05:53;11.60;20.30
14755;DHT22;7469;50.906;6.952;2023-04-03T13:08:22;11.70;20.40
14755;DHT22;7469;50.906;6.952;2023-04-03T13:10:54;11.70;20.30
14755;DHT22;7469;50.906;6.952;2023-04-03T13:13:23;11.90;20.40
14755;DHT22;7469;50.906;6.952;2023-04-03T13:15:54;12.00;20.20
14755;DHT22;7469;50.906;6.952;2023-04-03T13:18:24;12.10;20.10
14755;DHT22;7469;50.906;6.952;2023-04-03T13:20:56;12.20;20.10
14755;DHT22;7469;50.906;6.952;2023-04-03T13:23:24;12.30;20.20
14755;DHT22;7469;50.906;6.952;2023-04-03T13:25:53;12.40;20.10
14755;DHT22;7469;50.906;6.952;2023-04-03T13:28:23;12.50;20.20
14755;DHT22;7469;50.906;6.952;2023-04-03T13:30:58;12.60;19.90
14755;DHT22;7469;50.906;6.952;2023-04-03T13:33:30;12.70;19.80
14755;DHT22;7469;50.906;6.952;2023-04-03T13:36:04;12.80;19.70
14755;DHT22;7469;50.906;6.952;2023-04-03T13:38:33;12.90;19.70
14755;DHT22;7469;50.906;6.952;2023-04-03T13:41:20;13.00;19.80
14755;DHT22;7469;50.906;6.952;2023-04-03T13:43:48;13.10;19.80
14755;DHT22;7469;50.906;6.952;2023-04-03T13:46:25;13.10;19.70
14755;DHT22;7469;50.906;6.952;2023-04-03T13:48:55;13.20;19.80
14755;DHT22;7469;50.906;6.952;2023-04-03T13:51:26;13.30;19.90
14755;DHT22;7469;50.906;6.952;2023-04-03T13:53:56;13.40;20.00
14755;DHT22;7469;50.906;6.952;2023-04-03T13:56:29;13.50;20.20
14755;DHT22;7469;50.906;6.952;2023-04-03T13:59:01;13.60;20.00
14755;DHT22;7469;50.906;6.952;2023-04-03T14:01:38;13.60;19.80
14755;DHT22;7469;50.906;6.952;2023-04-03T14:04:15;13.60;19.60
14755;DHT22;7469;50.906;6.952;2023-04-03T14:06:45;13.60;19.50
14755;DHT22;7469;50.906;6.952;2023-04-03T14:09:14;13.60;19.60
14755;DHT22;7469;50.906;6.952;2023-04-03T14:11:44;13.60;19.50
14755;DHT22;7469;50.906;6.952;2023-04-03T14:14:14;13.60;19.70
14755;DHT22;7469;50.906;6.952;2023-04-03T14:16:46;13.70;19.70
14755;DHT22;7469;50.906;6.952;2023-04-03T14:19:19;13.70;19.70
14755;DHT22;7469;50.906;6.952;2023-04-03T14:21:51;13.70;19.40
14755;DHT22;7469;50.906;6.952;2023-04-03T14:24:19;13.70;19.40
14755;DHT22;7469;50.906;6.952;2023-04-03T14:26:49;13.70;19.50
14755;DHT22;7469;50.906;6.952;2023-04-03T14:29:18;13.80;19.50
14755;DHT22;7469;50.906;6.952;2023-04-03T14:31:48;13.70;19.00
14755;DHT22;7469;50.906;6.952;2023-04-03T14:34:26;13.70;19.30
14755;DHT22;7469;50.906;6.952;2023-04-03T14:36:55;13.70;19.40
14755;DHT22;7469;50.906;6.952;2023-04-03T14:39:23;13.70;19.60
14755;DHT22;7469;50.906;6.952;2023-04-03T14:41:51;13.70;19.70
14755;DHT22;7469;50.906;6.952;2023-04-03T14:44:19;13.70;19.70
14755;DHT22;7469;50.906;6.952;2023-04-03T14:46:47;13.80;19.60
14755;DHT22;7469;50.906;6.952;2023-04-03T14:49:25;13.80;19.30
14755;DHT22;7469;50.906;6.952;2023-04-03T14:51:56;13.70;19.20
14755;DHT22;7469;50.906;6.952;2023-04-03T14:54:25;13.70;19.40
14755;DHT22;7469;50.906;6.952;2023-04-03T14:56:57;13.60;19.70
14755;DHT22;7469;50.906;6.952;2023-04-03T14:59:25;13.50;20.10
14755;DHT22;7469;50.906;6.952;2023-04-03T15:01:54;13.50;20.30
14755;DHT22;7469;50.906;6.952;2023-04-03T15:04:22;13.50;20.50
14755;DHT22;7469;50.906;6.952;2023-04-03T15:06:51;13.60;20.30
14755;DHT22;7469;50.906;6.952;2023-04-03T15:09:23;13.60;20.40
14755;DHT22;7469;50.906;6.952;2023-04-03T15:11:53;13.60;20.60
14755;DHT22;7469;50.906;6.952;2023-04-03T15:14:22;13.60;20.60
14755;DHT22;7469;50.906;6.952;2023-04-03T15:17:04;13.60;20.80
14755;DHT22;7469;50.906;6.952;2023-04-03T15:19:36;13.60;20.70
14755;DHT22;7469;50.906;6.952;2023-04-03T15:22:05;13.60;20.80
14755;DHT22;7469;50.906;6.952;2023-04-03T15:24:35;13.50;20.70
14755;DHT22;7469;50.906;6.952;2023-04-03T15:27:03;13.60;20.90
14755;DHT22;7469;50.906;6.952;2023-04-03T15:29:31;13.60;20.80
14755;DHT22;7469;50.906;6.952;2023-04-03T15:31:59;13.60;20.60
14755;DHT22;7469;50.906;6.952;2023-04-03T15:34:27;13.60;20.20
14755;DHT22;7469;50.906;6.952;2023-04-03T15:36:55;13.60;20.10
14755;DHT22;7469;50.906;6.952;2023-04-03T15:39:24;13.60;20.10
14755;DHT22;7469;50.906;6.952;2023-04-03T15:41:54;13.60;20.20
14755;DHT22;7469;50.906;6.952;2023-04-03T15:44:26;13.50;20.50
14755;DHT22;7469;50.906;6.952;2023-04-03T15:46:54;13.60;20.10
14755;DHT22;7469;50.906;6.952;2023-04-03T15:49:22;13.50;20.10
14755;DHT22;7469;50.906;6.952;2023-04-03T15:51:50;13.40;20.10
14755;DHT22;7469;50.906;6.952;2023-04-03T15:54:18;13.30;20.20
14755;DHT22;7469;50.906;6.952;2023-04-03T15:56:46;13.00;20.30
14755;DHT22;7469;50.906;6.952;2023-04-03T15:59:17;13.00;20.70
14755;DHT22;7469;50.906;6.952;2023-04-03T16:01:45;12.80;20.60
14755;DHT22;7469;50.906;6.952;2023-04-03T16:04:13;12.60;20.80
14755;DHT22;7469;50.906;6.952;2023-04-03T16:06:44;12.50;20.90
14755;DHT22;7469;50.906;6.952;2023-04-03T16:09:12;12.40;21.40
14755;DHT22;7469;50.906;6.952;2023-04-03T16:11:40;12.30;21.70
14755;DHT22;7469;50.906;6.952;2023-04-03T16:14:08;12.20;21.90
14755;DHT22;7469;50.906;6.952;2023-04-03T16:16:38;12.10;22.10
14755;DHT22;7469;50.906;6.952;2023-04-03T16:19:09;12.10;22.30
14755;DHT22;7469;50.906;6.952;2023-04-03T16:21:37;12.00;22.20
14755;DHT22;7469;50.906;6.952;2023-04-03T16:24:06;11.90;22.30
14755;DHT22;7469;50.906;6.952;2023-04-03T16:26:34;11.80;22.30
14755;DHT22;7469;50.906;6.952;2023-04-03T16:29:02;11.70;22.40
14755;DHT22;7469;50.906;6.952;2023-04-03T16:31:32;11.60;22.70
14755;DHT22;7469;50.906;6.952;2023-04-03T16:34:02;11.60;22.80